Time;durP1;ratioP1;P1;durP2;ratioP2;P2;SDS_P1;SDS_P2;PMS_P1;PMS_P2;Temp;Humidity;BMP_temperature;BMP_pressure;BME280_temperature;BME280_humidity;BME280_pressure;Samples;Min_cycle;Max_cycle;Signal;HPM_P1;HPM_P2
2023/10/16 00:01:31;;;;;;;5.78;0.70;;;9.00;99.90;;;;;;5080189;28;20047;-56
2023/10/16 00:03:57;;;;;;;4.15;1.00;;;9.00;99.90;;;;;;5081582;28;20075;-57
2023/10/16 00:06:23;;;;;;;1.25;0.40;;;9.00;99.90;;;;;;5079500;28;20624;-56
2023/10/16 00:08:49;;;;;;;2.50;0.55;;;9.00;99.90;;;;;;5061756;28;20225;-56
2023/10/16 00:11:19;;;;;;;5.93;1.00;;;9.00;99.90;;;;;;5078204;28;20400;-54
2023/10/16 00:13:49;;;;;;;6.47;0.95;;;9.00;99.90;;;;;;5079940;28;20047;-55
2023/10/16 00:16:17;;;;;;;4.30;0.65;;;9.00;99.90;;;;;;5077086;28;20491;-54
2023/10/16 00:18:45;;;;;;;4.72;0.93;;;9.00;99.90;;;;;;5075348;28;20063;-54
2023/10/16 00:21:13;;;;;;;5.45;0.60;;;8.90;99.90;;;;;;5082866;28;20094;-55
2023/10/16 00:23:39;;;;;;;3.60;0.98;;;8.90;99.90;;;;;;5079189;28;20055;-57
2023/10/16 00:26:06;;;;;;;3.65;0.85;;;8.80;99.90;;;;;;5076414;28;20069;-56
2023/10/16 00:28:35;;;;;;;3.65;0.68;;;8.80;99.90;;;;;;5078933;28;20044;-57
2023/10/16 00:31:02;;;;;;;4.60;0.93;;;8.90;99.90;;;;;;5083387;28;20390;-56
2023/10/16 00:33:28;;;;;;;5.65;1.00;;;8.90;99.90;;;;;;5084172;28;20075;-55
2023/10/16 00:35:54;;;;;;;4.05;0.80;;;8.90;99.90;;;;;;5062223;28;20076;-55
2023/10/16 00:38:22;;;;;;;6.28;0.88;;;8.90;99.90;;;;;;5076573;28;20131;-56
2023/10/16 00:43:33;;;;;;;3.10;0.80;;;9.00;99.90;;;;;;5060745;28;20048;-55
2023/10/16 00:46:10;;;;;;;4.60;0.80;;;9.00;99.90;;;;;;5074531;28;20291;-57
2023/10/16 00:48:39;;;;;;;3.67;0.77;;;9.10;99.90;;;;;;5064088;28;20062;-53
2023/10/16 00:51:08;;;;;;;5.88;1.15;;;9.10;99.90;;;;;;5076432;28;20122;-57
2023/10/16 00:53:36;;;;;;;4.00;0.70;;;9.10;99.90;;;;;;5078909;28;20076;-53
2023/10/16 00:56:08;;;;;;;3.20;0.70;;;9.10;99.90;;;;;;5080279;28;20402;-57
2023/10/16 00:58:37;;;;;;;4.38;0.80;;;9.20;99.90;;;;;;5076553;28;20044;-57
2023/10/16 01:01:12;;;;;;;6.75;1.10;;;9.20;99.90;;;;;;5075611;28;20047;-56
2023/10/16 01:03:40;;;;;;;4.88;1.10;;;9.20;99.90;;;;;;5073311;28;20036;-57
2023/10/16 01:06:15;;;;;;;5.45;1.15;;;9.20;99.90;;;;;;5074101;28;20494;-57
2023/10/16 01:08:45;;;;;;;6.05;1.02;;;9.20;99.90;;;;;;5071660;28;20071;-57
2023/10/16 01:11:14;;;;;;;2.60;0.75;;;9.20;99.90;;;;;;5081554;28;20145;-57
2023/10/16 01:13:41;;;;;;;6.40;1.42;;;9.30;99.90;;;;;;5078231;28;20181;-57
2023/10/16 01:16:07;;;;;;;3.30;1.52;;;9.30;99.90;;;;;;5072530;28;20415;-56
2023/10/16 01:18:37;;;;;;;5.45;1.15;;;9.30;99.90;;;;;;5078049;28;20589;-57
2023/10/16 01:21:05;;;;;;;3.78;1.02;;;9.30;99.90;;;;;;5069824;28;20040;-57
2023/10/16 01:23:34;;;;;;;2.83;1.13;;;9.30;99.90;;;;;;5060947;28;20441;-54
2023/10/16 01:26:01;;;;;;;3.30;0.90;;;9.30;99.90;;;;;;5079188;28;20111;-56
2023/10/16 01:28:27;;;;;;;4.30;0.70;;;9.30;99.90;;;;;;5064227;28;20092;-57
2023/10/16 01:30:56;;;;;;;6.25;0.90;;;9.30;99.90;;;;;;5073216;28;20047;-57
2023/10/16 01:33:23;;;;;;;6.68;1.02;;;9.30;99.90;;;;;;5072124;28;20426;-57
2023/10/16 01:35:52;;;;;;;2.25;0.80;;;9.20;99.90;;;;;;5072631;28;20059;-57
2023/10/16 01:38:18;;;;;;;5.75;0.88;;;9.20;99.90;;;;;;5064259;28;20035;-55
2023/10/16 01:43:31;;;;;;;4.20;0.90;;;9.10;99.90;;;;;;5068896;28;20128;-54
2023/10/16 01:46:04;;;;;;;5.43;1.08;;;9.10;99.90;;;;;;5072304;28;20040;-57
2023/10/16 01:48:30;;;;;;;5.55;0.77;;;9.10;99.90;;;;;;5083120;28;20028;-57
2023/10/16 01:50:57;;;;;;;3.83;0.70;;;9.10;99.90;;;;;;5089159;28;20534;-57
2023/10/16 01:53:25;;;;;;;3.75;0.70;;;9.00;99.90;;;;;;5077362;28;20143;-57
2023/10/16 01:55:54;;;;;;;6.07;1.40;;;9.00;99.90;;;;;;5079340;28;20415;-58
2023/10/16 01:58:32;;;;;;;3.72;0.90;;;9.00;99.90;;;;;;5071330;28;20036;-57
2023/10/16 02:00:57;;;;;;;7.95;1.70;;;9.00;99.90;;;;;;5078083;28;20047;-57
2023/10/16 02:03:26;;;;;;;4.30;1.27;;;8.90;99.90;;;;;;5082327;28;20376;-57
2023/10/16 02:05:52;;;;;;;5.10;1.23;;;8.90;99.90;;;;;;5074356;28;20063;-56
2023/10/16 02:08:20;;;;;;;6.88;1.40;;;8.90;99.90;;;;;;5081126;28;20044;-57
2023/10/16 02:10:46;;;;;;;3.83;0.90;;;8.90;99.90;;;;;;5080235;28;20407;-56
2023/10/16 02:13:12;;;;;;;3.00;0.90;;;8.90;99.90;;;;;;5070122;28;20484;-57
2023/10/16 02:15:38;;;;;;;3.63;1.25;;;8.80;99.90;;;;;;5071075;28;20055;-56
2023/10/16 02:18:09;;;;;;;4.97;0.80;;;8.90;99.90;;;;;;5062696;28;20043;-57
2023/10/16 02:20:38;;;;;;;3.08;1.02;;;8.90;99.90;;;;;;5079633;28;20055;-57
2023/10/16 02:23:07;;;;;;;3.55;0.85;;;8.90;99.90;;;;;;5062324;28;20055;-56
2023/10/16 02:25:36;;;;;;;1.65;0.80;;;9.00;99.90;;;;;;5080410;28;20677;-62
2023/10/16 02:28:03;;;;;;;5.05;1.10;;;8.90;99.90;;;;;;5073878;28;20540;-55
2023/10/16 02:30:28;;;;;;;7.70;1.10;;;8.90;99.90;;;;;;5075391;28;20048;-57
2023/10/16 02:32:59;;;;;;;6.40;1.83;;;8.90;99.90;;;;;;5071446;28;20033;-57
2023/10/16 02:35:27;;;;;;;3.90;1.20;;;8.90;99.90;;;;;;5075865;28;20071;-57
2023/10/16 02:37:57;;;;;;;2.92;0.82;;;8.90;99.90;;;;;;5080682;28;20040;-57
2023/10/16 02:40:26;;;;;;;7.35;1.10;;;8.90;99.90;;;;;;5074592;28;20400;-56
2023/10/16 02:42:56;;;;;;;5.05;0.90;;;8.90;99.90;;;;;;5081990;28;20048;-57
2023/10/16 02:45:27;;;;;;;6.43;1.83;;;8.90;99.90;;;;;;5073541;28;20244;-57
2023/10/16 02:47:53;;;;;;;3.53;1.17;;;8.90;99.90;;;;;;5063703;28;20119;-56
2023/10/16 02:50:19;;;;;;;6.70;2.03;;;8.90;99.90;;;;;;5066576;28;20144;-57
2023/10/16 02:52:49;;;;;;;6.32;1.52;;;8.90;99.90;;;;;;5068063;28;20040;-56
2023/10/16 02:55:15;;;;;;;7.05;2.63;;;8.90;99.90;;;;;;5083707;28;20101;-57
2023/10/16 02:57:41;;;;;;;6.28;1.88;;;8.90;99.90;;;;;;5075621;28;20047;-57
2023/10/16 03:00:17;;;;;;;5.50;1.73;;;9.00;99.90;;;;;;5079927;28;20059;-57
2023/10/16 03:02:46;;;;;;;4.60;1.10;;;9.00;99.90;;;;;;5074645;28;20040;-56
2023/10/16 03:05:21;;;;;;;7.05;1.20;;;8.90;99.90;;;;;;5069699;28;20048;-56
2023/10/16 03:07:49;;;;;;;4.32;1.05;;;8.90;99.90;;;;;;5063311;28;20039;-55
2023/10/16 03:10:16;;;;;;;7.47;1.05;;;8.90;99.90;;;;;;5074332;28;20443;-56
2023/10/16 03:12:49;;;;;;;6.50;1.20;;;8.90;99.90;;;;;;5078280;28;20048;-55
2023/10/16 03:15:20;;;;;;;5.47;0.90;;;8.90;99.90;;;;;;5076755;28;20048;-55
2023/10/16 03:17:50;;;;;;;2.97;0.95;;;8.90;99.90;;;;;;5061235;28;20051;-57
2023/10/16 03:20:20;;;;;;;3.20;0.85;;;8.90;99.90;;;;;;5073903;28;20040;-57
2023/10/16 03:22:50;;;;;;;5.05;1.30;;;9.00;99.90;;;;;;5062228;28;20042;-57
2023/10/16 03:25:30;;;;;;;4.43;1.33;;;9.00;99.90;;;;;;5065652;28;20039;-57
2023/10/16 03:27:57;;;;;;;3.97;0.95;;;9.00;99.90;;;;;;5044193;28;20029;-56
2023/10/16 03:30:29;;;;;;;3.90;0.95;;;9.10;99.90;;;;;;5069254;28;20452;-57
2023/10/16 03:32:55;;;;;;;5.65;0.70;;;9.10;99.90;;;;;;5068690;28;20078;-54
2023/10/16 03:35:26;;;;;;;7.28;2.08;;;9.10;99.90;;;;;;5065068;28;20079;-55
2023/10/16 03:37:55;;;;;;;4.15;1.02;;;9.20;99.90;;;;;;5071664;28;20044;-56
2023/10/16 03:40:24;;;;;;;3.80;0.93;;;9.20;99.90;;;;;;5072484;28;20093;-57
2023/10/16 03:42:51;;;;;;;3.55;0.93;;;9.20;99.90;;;;;;5072931;28;20451;-57
2023/10/16 03:45:20;;;;;;;7.80;1.15;;;9.20;99.90;;;;;;5071950;28;20075;-57
2023/10/16 03:47:53;;;;;;;3.42;1.50;;;9.30;99.90;;;;;;5064706;28;20518;-56
2023/10/16 03:50:23;;;;;;;4.35;1.30;;;9.30;99.90;;;;;;5075140;28;20066;-57
2023/10/16 03:52:50;;;;;;;9.18;2.00;;;9.30;99.90;;;;;;5072713;28;20410;-56
2023/10/16 03:55:25;;;;;;;4.97;1.30;;;9.20;99.90;;;;;;5077981;28;20044;-54
2023/10/16 03:57:57;;;;;;;6.75;1.75;;;9.20;99.90;;;;;;5079060;28;20059;-57
2023/10/16 04:00:27;;;;;;;5.13;1.52;;;9.20;99.90;;;;;;5082716;28;20487;-56
2023/10/16 04:02:53;;;;;;;6.90;1.92;;;9.20;99.90;;;;;;5072913;28;20047;-57
2023/10/16 04:05:45;;;;;;;3.78;1.33;;;9.20;99.90;;;;;;5066891;28;20271;-56
2023/10/16 04:08:14;;;;;;;7.15;1.63;;;9.20;99.90;;;;;;5073682;28;20109;-56
2023/10/16 04:10:46;;;;;;;5.97;1.70;;;9.20;99.90;;;;;;5075332;28;20043;-57
2023/10/16 04:13:14;;;;;;;7.40;1.42;;;9.20;99.90;;;;;;5081164;28;20078;-57
2023/10/16 04:21:10;;;;;;;6.88;1.13;;;9.10;99.90;;;;;;5027161;28;19925;-58
2023/10/16 04:31:44;;;;;;;3.95;0.90;;;9.00;99.90;;;;;;5045784;28;20053;-58
2023/10/16 04:50:15;;;;;;;4.72;0.93;;;9.20;99.90;;;;;;5038304;28;20094;-58
2023/10/16 05:14:22;;;;;;;3.78;1.02;;;9.30;99.90;;;;;;5039742;28;20041;-58
2023/10/16 05:22:03;;;;;;;4.82;1.23;;;9.20;99.90;;;;;;5045320;28;20052;-58
2023/10/16 06:14:14;;;;;;;6.45;2.22;;;9.00;99.90;;;;;;5040022;28;19921;-57
2023/10/16 06:16:41;;;;;;;9.45;2.30;;;9.00;99.90;;;;;;5017796;28;20041;-58
2023/10/16 06:19:15;;;;;;;6.65;1.63;;;9.00;99.90;;;;;;5036318;28;20053;-58
2023/10/16 06:21:51;;;;;;;6.72;2.10;;;9.00;99.90;;;;;;5039213;28;20396;-58
2023/10/16 06:24:33;;;;;;;8.10;2.30;;;9.00;99.90;;;;;;5035638;28;20036;-57
2023/10/16 06:27:00;;;;;;;5.35;1.90;;;9.00;99.90;;;;;;5054003;28;20049;-58
2023/10/16 06:29:40;;;;;;;3.85;1.67;;;9.00;99.90;;;;;;5053499;28;20039;-59
2023/10/16 06:32:07;;;;;;;4.05;2.20;;;9.00;99.90;;;;;;5054504;28;20045;-58
2023/10/16 06:34:34;;;;;;;3.95;1.60;;;9.00;99.90;;;;;;5035855;28;20641;-58
2023/10/16 06:37:06;;;;;;;4.65;2.00;;;9.00;99.90;;;;;;5022333;28;20048;-58
2023/10/16 06:39:37;;;;;;;5.40;1.80;;;9.10;99.90;;;;;;5039245;28;20488;-57
2023/10/16 06:42:03;;;;;;;3.88;1.50;;;9.10;99.90;;;;;;5037381;28;20130;-58
2023/10/16 06:44:31;;;;;;;6.95;2.08;;;9.20;99.90;;;;;;5037982;28;20037;-58
2023/10/16 06:47:00;;;;;;;8.65;2.00;;;9.20;99.90;;;;;;5038029;28;20079;-58
2023/10/16 06:49:35;;;;;;;4.68;2.50;;;9.20;99.90;;;;;;5036396;28;20052;-57
2023/10/16 06:52:04;;;;;;;3.13;1.35;;;9.20;99.90;;;;;;5021529;28;20044;-58
2023/10/16 06:54:37;;;;;;;15.48;2.03;;;9.30;99.90;;;;;;5016970;28;20044;-58
2023/10/16 06:57:12;;;;;;;6.03;1.30;;;9.40;99.90;;;;;;5033512;28;20044;-59
2023/10/16 06:59:42;;;;;;;4.35;1.60;;;9.40;99.90;;;;;;5019028;28;20512;-57
2023/10/16 07:02:15;;;;;;;6.53;1.98;;;9.50;99.90;;;;;;5022307;28;20045;-58
2023/10/16 07:04:44;;;;;;;4.90;1.25;;;9.50;99.90;;;;;;5038039;28;20677;-57
2023/10/16 07:07:18;;;;;;;6.35;2.30;;;9.50;99.90;;;;;;5056859;28;20040;-58
2023/10/16 07:09:48;;;;;;;7.95;1.63;;;9.60;99.90;;;;;;5037333;28;20467;-58
2023/10/16 07:12:16;;;;;;;8.93;1.40;;;9.60;99.90;;;;;;5038218;28;20502;-57
2023/10/16 07:14:44;;;;;;;7.22;1.42;;;9.60;99.90;;;;;;5041700;28;20048;-59
2023/10/16 07:17:13;;;;;;;5.00;1.70;;;9.60;99.90;;;;;;5022314;28;20045;-58
2023/10/16 07:19:41;;;;;;;8.82;1.52;;;9.60;99.90;;;;;;5036897;28;20141;-58
2023/10/16 07:22:10;;;;;;;11.23;1.70;;;9.70;99.90;;;;;;5036568;28;20088;-57
2023/10/16 07:24:36;;;;;;;7.70;2.20;;;9.70;99.90;;;;;;5040880;28;20128;-59
2023/10/16 07:27:12;;;;;;;10.13;2.53;;;9.80;99.90;;;;;;5028033;28;20045;-58
2023/10/16 07:29:44;;;;;;;7.90;1.92;;;9.80;99.90;;;;;;5023875;28;20052;-58
2023/10/16 07:32:09;;;;;;;9.43;2.65;;;9.80;99.90;;;;;;5040804;28;20037;-58
2023/10/16 07:34:37;;;;;;;6.07;1.75;;;9.80;99.90;;;;;;5045723;28;20379;-58
2023/10/16 07:37:07;;;;;;;15.20;1.80;;;9.90;99.90;;;;;;5040629;28;20206;-58
2023/10/16 07:39:34;;;;;;;7.80;1.65;;;10.00;99.90;;;;;;5045334;28;20106;-57
2023/10/16 07:42:01;;;;;;;5.78;1.60;;;10.00;99.90;;;;;;5046034;28;20561;-57
2023/10/16 07:44:28;;;;;;;7.93;1.58;;;10.00;99.90;;;;;;5028885;28;20076;-58
2023/10/16 07:46:54;;;;;;;8.45;2.22;;;10.10;99.90;;;;;;5036406;28;20048;-57
2023/10/16 07:49:25;;;;;;;6.50;1.67;;;10.10;99.90;;;;;;5024441;28;20075;-57
2023/10/16 07:51:52;;;;;;;6.45;2.08;;;10.10;99.90;;;;;;5030910;28;20048;-58
2023/10/16 07:54:21;;;;;;;6.13;1.55;;;10.20;99.90;;;;;;5042620;28;20041;-59
2023/10/16 07:56:50;;;;;;;7.55;1.77;;;10.30;99.90;;;;;;5055212;28;20532;-58
2023/10/16 07:59:25;;;;;;;8.40;2.10;;;10.30;99.90;;;;;;5043140;28;20048;-58
2023/10/16 08:01:59;;;;;;;12.00;2.50;;;10.30;99.90;;;;;;5037480;28;20314;-57
2023/10/16 08:06:55;;;;;;;10.48;1.95;;;10.30;99.90;;;;;;5023461;28;20511;-58
2023/10/16 08:11:56;;;;;;;5.30;1.58;;;10.30;99.90;;;;;;5045242;28;20045;-58
2023/10/16 08:14:23;;;;;;;8.95;1.60;;;10.30;99.90;;;;;;5042879;28;20084;-59
2023/10/16 08:16:58;;;;;;;4.65;1.60;;;10.40;99.90;;;;;;5034932;28;20072;-59
2023/10/16 08:19:25;;;;;;;8.15;1.80;;;10.40;99.90;;;;;;5036997;28;20310;-59
2023/10/16 08:21:54;;;;;;;7.28;1.70;;;10.50;99.90;;;;;;5043048;28;20099;-58
2023/10/16 08:24:21;;;;;;;7.95;2.58;;;10.50;99.90;;;;;;5038910;28;20045;-58
2023/10/16 08:26:48;;;;;;;6.78;1.65;;;10.60;99.90;;;;;;5055685;28;20037;-59
2023/10/16 08:34:46;;;;;;;6.35;1.70;;;10.70;99.90;;;;;;5044710;28;20140;-58
2023/10/16 08:37:13;;;;;;;5.75;1.48;;;10.70;99.90;;;;;;5039639;28;20056;-58
2023/10/16 08:39:47;;;;;;;5.43;1.75;;;10.70;99.90;;;;;;5038551;28;20082;-58
2023/10/16 08:42:19;;;;;;;5.68;1.73;;;10.80;99.90;;;;;;5043124;28;20079;-58
2023/10/16 08:44:51;;;;;;;4.00;1.15;;;10.80;99.90;;;;;;5039219;28;20045;-57
2023/10/16 08:47:27;;;;;;;6.80;1.27;;;10.80;99.90;;;;;;5040030;28;20554;-58
2023/10/16 08:49:57;;;;;;;9.73;1.73;;;10.80;99.90;;;;;;5037509;28;20140;-59
2023/10/16 08:52:33;;;;;;;4.13;1.20;;;10.90;99.90;;;;;;5040563;28;20041;-58
2023/10/16 08:55:01;;;;;;;3.53;1.10;;;10.90;99.90;;;;;;5021560;28;20043;-58
2023/10/16 08:57:26;;;;;;;5.47;1.45;;;11.10;99.90;;;;;;5041843;28;20041;-58
2023/10/16 08:59:54;;;;;;;8.85;1.70;;;11.20;99.90;;;;;;5043767;28;20132;-58
2023/10/16 09:02:23;;;;;;;9.73;2.35;;;11.20;99.90;;;;;;5043711;28;21998;-58
2023/10/16 09:04:49;;;;;;;7.80;1.35;;;11.30;99.90;;;;;;5040036;28;20052;-59
2023/10/16 09:07:18;;;;;;;7.82;2.13;;;11.30;99.90;;;;;;5040832;28;20079;-58
2023/10/16 09:09:48;;;;;;;9.73;1.50;;;11.40;99.90;;;;;;5043138;28;20331;-58
2023/10/16 09:12:24;;;;;;;4.22;1.17;;;11.50;99.90;;;;;;5041053;28;20476;-56
2023/10/16 09:14:53;;;;;;;7.13;1.00;;;11.70;99.90;;;;;;5043397;28;20047;-58
2023/10/16 09:17:23;;;;;;;8.18;1.73;;;11.80;99.90;;;;;;5043822;28;20044;-58
2023/10/16 09:19:50;;;;;;;4.25;1.27;;;11.90;99.90;;;;;;5042310;28;20054;-57
2023/10/16 09:22:18;;;;;;;6.97;1.85;;;12.00;99.90;;;;;;5044843;28;20122;-58
2023/10/16 09:24:47;;;;;;;7.75;1.73;;;12.00;99.90;;;;;;5039575;28;20064;-56
2023/10/16 09:27:16;;;;;;;7.10;1.80;;;12.00;99.90;;;;;;5023114;28;20124;-58
2023/10/16 09:29:55;;;;;;;5.43;1.33;;;12.00;99.90;;;;;;5034460;28;20434;-58
2023/10/16 09:32:25;;;;;;;8.25;1.65;;;12.00;99.90;;;;;;5039557;28;20052;-58
2023/10/16 09:35:04;;;;;;;8.35;1.77;;;12.00;99.90;;;;;;5043044;28;20653;-58
2023/10/16 09:37:47;;;;;;;6.78;1.38;;;12.00;99.90;;;;;;5042580;28;20110;-58
2023/10/16 09:40:19;;;;;;;8.95;1.45;;;12.00;99.90;;;;;;5039835;28;20055;-58
2023/10/16 09:42:55;;;;;;;7.95;1.48;;;12.00;99.90;;;;;;5036528;28;20067;-57
2023/10/16 09:45:25;;;;;;;6.90;1.85;;;12.00;99.90;;;;;;5046741;28;20076;-58
2023/10/16 09:47:57;;;;;;;5.93;1.98;;;12.00;99.90;;;;;;5044324;28;20495;-58
2023/10/16 09:50:24;;;;;;;4.85;1.45;;;12.00;99.90;;;;;;5044014;28;20095;-59
2023/10/16 09:52:49;;;;;;;7.00;1.40;;;12.00;99.90;;;;;;5021115;28;20148;-57
2023/10/16 09:55:18;;;;;;;5.00;1.13;;;12.00;99.90;;;;;;5040784;28;20116;-59
2023/10/16 09:57:52;;;;;;;4.68;1.05;;;12.00;99.90;;;;;;5021056;28;20479;-59
2023/10/16 10:00:29;;;;;;;7.15;1.10;;;12.00;99.90;;;;;;5041189;28;20045;-58
2023/10/16 10:03:05;;;;;;;6.70;1.42;;;12.10;99.90;;;;;;5042898;28;20068;-58
2023/10/16 10:05:49;;;;;;;6.88;1.52;;;12.30;99.90;;;;;;5022716;28;20593;-56
2023/10/16 10:08:27;;;;;;;6.75;1.20;;;12.50;99.90;;;;;;5040101;28;20051;-58
2023/10/16 10:11:23;;;;;;;4.78;1.10;;;12.60;99.90;;;;;;5046043;28;20037;-57
2023/10/16 10:16:39;;;;;;;9.50;1.20;;;12.90;99.90;;;;;;5055511;22;20326;-58
2023/10/16 10:19:05;;;;;;;5.07;1.20;;;12.90;99.90;;;;;;5037329;28;20075;-58
2023/10/16 10:21:44;;;;;;;5.88;1.45;;;13.00;99.90;;;;;;5018354;28;20040;-58
2023/10/16 10:24:15;;;;;;;6.10;1.25;;;13.10;99.90;;;;;;5043193;28;20529;-56
2023/10/16 10:26:50;;;;;;;6.80;1.10;;;13.10;99.90;;;;;;5049280;28;20407;-58
2023/10/16 10:29:16;;;;;;;6.78;1.13;;;13.20;99.90;;;;;;5053923;28;20095;-57
2023/10/16 10:31:45;;;;;;;4.53;1.10;;;13.30;99.90;;;;;;5020705;28;20172;-57
2023/10/16 10:34:27;;;;;;;6.30;1.00;;;13.40;99.90;;;;;;5025979;28;20049;-57
2023/10/16 10:36:53;;;;;;;4.22;1.10;;;13.50;99.90;;;;;;5004160;28;20577;-57
2023/10/16 10:41:56;;;;;;;2.80;1.02;;;13.70;99.90;;;;;;5020017;28;20053;-58
2023/10/16 10:44:44;;;;;;;8.15;1.10;;;13.80;99.90;;;;;;5022795;28;20045;-58
2023/10/16 10:47:30;;;;;;;8.25;1.30;;;13.90;99.90;;;;;;5021342;28;20033;-58
2023/10/16 10:50:00;;;;;;;6.93;1.02;;;13.90;99.90;;;;;;5022610;28;20373;-58
2023/10/16 10:52:30;;;;;;;3.95;1.10;;;13.90;99.90;;;;;;5039248;28;20072;-58
2023/10/16 10:55:14;;;;;;;3.63;0.90;;;14.00;99.90;;;;;;5026605;28;20094;-58
2023/10/16 10:57:47;;;;;;;6.40;1.27;;;14.10;99.90;;;;;;5025350;28;20124;-57
2023/10/16 11:00:22;;;;;;;5.50;1.52;;;14.20;99.90;;;;;;5022958;28;20463;-57
2023/10/16 11:05:30;;;;;;;5.57;1.58;;;14.30;99.90;;;;;;5035947;28;20318;-58
2023/10/16 11:10:36;;;;;;;7.43;1.60;;;14.50;99.90;;;;;;5029654;28;20053;-58
2023/10/16 11:13:05;;;;;;;4.25;1.35;;;14.50;99.90;;;;;;5012789;28;20052;-58
2023/10/16 11:15:32;;;;;;;4.82;1.25;;;14.50;99.90;;;;;;5031438;28;20041;-58
2023/10/16 11:18:07;;;;;;;3.55;1.13;;;14.50;99.90;;;;;;5026396;28;20037;-58
2023/10/16 11:20:36;;;;;;;3.03;1.13;;;14.60;99.90;;;;;;5058015;28;20068;-57
2023/10/16 11:23:12;;;;;;;5.70;1.10;;;14.60;99.90;;;;;;5023560;28;20041;-58
2023/10/16 11:25:44;;;;;;;6.25;1.10;;;14.60;99.90;;;;;;5026938;28;20555;-58
2023/10/16 11:28:36;;;;;;;5.65;1.30;;;14.50;99.90;;;;;;5011146;28;20055;-58
2023/10/16 11:31:09;;;;;;;4.68;0.95;;;14.30;99.90;;;;;;5023517;28;20065;-58
2023/10/16 11:34:00;;;;;;;;;;;14.20;99.90;;;;;;5058934;28;20400;-57
2023/10/16 11:36:31;;;;;;;5.15;1.33;;;14.10;99.90;;;;;;5023140;28;19924;-58
2023/10/16 11:39:06;;;;;;;5.32;1.23;;;14.10;99.90;;;;;;5021301;28;20088;-58
2023/10/16 11:41:36;;;;;;;5.97;1.25;;;14.20;99.90;;;;;;5006254;28;20481;-57
2023/10/16 11:44:13;;;;;;;4.70;1.17;;;14.20;99.90;;;;;;5020612;28;20050;-56
2023/10/16 11:46:44;;;;;;;6.68;1.10;;;14.30;99.90;;;;;;5059796;28;20080;-58
2023/10/16 11:51:49;;;;;;;6.68;1.83;;;14.30;99.90;;;;;;5027927;28;20076;-57
2023/10/16 11:54:19;;;;;;;4.30;1.00;;;14.20;99.90;;;;;;5028153;28;20046;-57
2023/10/16 11:56:47;;;;;;;3.63;0.98;;;14.30;99.90;;;;;;5008547;28;20037;-58
2023/10/16 11:59:19;;;;;;;6.03;1.30;;;14.40;99.90;;;;;;5004792;28;20565;-58
2023/10/16 12:01:45;;;;;;;6.05;1.13;;;14.40;99.90;;;;;;5055638;28;20131;-57
2023/10/16 12:04:16;;;;;;;5.47;1.23;;;14.30;99.90;;;;;;5023706;28;20053;-57
2023/10/16 12:06:44;;;;;;;5.00;0.93;;;14.20;99.90;;;;;;5027238;28;20036;-58
2023/10/16 12:09:13;;;;;;;9.38;1.35;;;14.10;99.90;;;;;;5061475;28;20102;-58
2023/10/16 12:11:43;;;;;;;5.25;1.50;;;13.90;99.90;;;;;;5041733;28;20442;-58
2023/10/16 12:14:14;;;;;;;6.40;1.67;;;13.80;99.90;;;;;;5058887;28;20369;-57
2023/10/16 12:16:45;;;;;;;2.75;1.00;;;13.80;99.90;;;;;;5013860;28;20147;-58
2023/10/16 12:19:18;;;;;;;5.97;1.30;;;13.80;99.90;;;;;;5006454;28;20045;-57
2023/10/16 12:21:47;;;;;;;3.35;1.15;;;13.90;99.90;;;;;;5026518;28;20055;-58
2023/10/16 12:24:13;;;;;;;3.63;1.15;;;14.00;99.90;;;;;;5028001;28;20520;-57
2023/10/16 12:26:40;;;;;;;9.68;1.13;;;14.10;99.90;;;;;;5033633;28;20033;-58
2023/10/16 12:29:08;;;;;;;7.35;1.52;;;14.20;99.90;;;;;;5024578;28;20045;-58
2023/10/16 12:31:39;;;;;;;3.85;1.10;;;14.30;99.90;;;;;;5030798;28;20049;-58
2023/10/16 12:34:07;;;;;;;3.75;0.95;;;14.40;99.90;;;;;;5027937;28;20068;-56
2023/10/16 12:36:33;;;;;;;4.32;1.00;;;14.40;99.90;;;;;;5027771;28;20045;-58
2023/10/16 12:38:59;;;;;;;6.43;1.10;;;14.40;99.90;;;;;;5014580;28;20057;-58
2023/10/16 12:41:25;;;;;;;6.45;1.20;;;14.40;99.90;;;;;;5045917;28;20037;-58
2023/10/16 12:43:50;;;;;;;5.05;0.93;;;14.40;99.90;;;;;;5018647;28;20049;-57
2023/10/16 12:46:17;;;;;;;7.72;1.27;;;14.40;99.90;;;;;;5028589;28;20057;-58
2023/10/16 12:48:44;;;;;;;14.32;1.38;;;14.40;99.90;;;;;;5061888;28;20128;-57
2023/10/16 12:51:10;;;;;;;4.80;1.05;;;14.40;99.90;;;;;;5020559;28;20095;-58
2023/10/16 12:53:38;;;;;;;7.22;1.23;;;14.40;99.90;;;;;;5023439;28;20045;-57
2023/10/16 12:56:05;;;;;;;6.55;1.08;;;14.50;99.90;;;;;;5038231;28;20526;-58
2023/10/16 12:58:34;;;;;;;5.93;1.27;;;14.50;99.90;;;;;;5054766;28;20045;-58
2023/10/16 13:01:10;;;;;;;9.57;1.10;;;14.50;99.90;;;;;;5018769;28;20077;-58
2023/10/16 13:03:36;;;;;;;6.45;1.40;;;14.50;99.90;;;;;;5020473;28;20052;-58
2023/10/16 13:06:08;;;;;;;4.00;1.23;;;14.50;99.90;;;;;;5020575;28;20048;-58
2023/10/16 13:08:34;;;;;;;5.15;1.10;;;14.50;99.90;;;;;;5050823;28;20381;-57
2023/10/16 13:10:59;;;;;;;6.05;0.95;;;14.50;99.90;;;;;;5022158;28;20044;-57
2023/10/16 13:13:25;;;;;;;8.35;1.42;;;14.60;99.90;;;;;;5025267;28;20087;-57
2023/10/16 13:15:51;;;;;;;4.18;0.93;;;14.50;99.90;;;;;;5022666;28;20658;-58
2023/10/16 13:18:27;;;;;;;6.57;1.30;;;14.50;99.90;;;;;;5037414;28;20052;-58
2023/10/16 13:21:15;;;;;;;9.45;1.85;;;14.50;99.90;;;;;;5024135;28;20072;-57
2023/10/16 13:23:41;;;;;;;11.15;1.48;;;14.60;99.90;;;;;;5018996;28;20566;-57
2023/10/16 13:26:09;;;;;;;5.50;1.45;;;14.50;99.90;;;;;;5058976;28;20037;-57
2023/10/16 13:28:41;;;;;;;9.07;1.65;;;14.50;99.90;;;;;;5038825;28;20057;-57
2023/10/16 13:31:08;;;;;;;10.75;1.92;;;14.40;99.90;;;;;;5033707;28;20049;-57
2023/10/16 13:33:35;;;;;;;4.32;1.30;;;14.30;99.90;;;;;;5009623;28;20048;-58
2023/10/16 13:36:03;;;;;;;6.88;1.23;;;14.30;99.90;;;;;;5029576;28;20136;-58
2023/10/16 13:38:31;;;;;;;6.13;1.17;;;14.30;99.90;;;;;;5059032;28;20033;-58
2023/10/16 13:41:03;;;;;;;7.70;1.40;;;14.30;99.90;;;;;;5023066;28;20045;-58
2023/10/16 13:43:32;;;;;;;9.55;1.90;;;14.20;99.90;;;;;;5027106;28;20049;-58
2023/10/16 13:45:58;;;;;;;10.65;1.88;;;14.20;99.90;;;;;;5023950;28;20167;-57
2023/10/16 13:48:28;;;;;;;6.35;1.73;;;14.10;99.90;;;;;;5020499;28;20088;-56
2023/10/16 13:50:54;;;;;;;6.25;1.30;;;14.10;99.90;;;;;;5025749;28;20451;-58
2023/10/16 13:53:20;;;;;;;7.75;1.30;;;14.10;99.90;;;;;;5026392;28;20037;-57
2023/10/16 13:55:52;;;;;;;5.45;1.45;;;14.10;99.90;;;;;;5039802;28;20212;-57
2023/10/16 13:58:19;;;;;;;8.38;1.30;;;14.10;99.90;;;;;;5022874;28;20512;-56
2023/10/16 14:00:47;;;;;;;6.32;1.40;;;14.00;99.90;;;;;;5054923;28;20246;-58
2023/10/16 14:05:47;;;;;;;7.25;1.15;;;14.00;99.90;;;;;;5018695;28;20535;-58
2023/10/16 14:08:17;;;;;;;7.03;1.00;;;13.90;99.90;;;;;;5022026;28;20607;-57
2023/10/16 14:10:52;;;;;;;5.63;1.25;;;13.90;99.90;;;;;;5024079;28;20522;-58
2023/10/16 14:13:26;;;;;;;7.88;1.60;;;13.90;99.90;;;;;;5005878;28;20056;-58
2023/10/16 14:15:57;;;;;;;7.18;1.65;;;13.90;99.90;;;;;;5051865;28;20044;-58
2023/10/16 14:18:26;;;;;;;8.07;1.60;;;13.90;99.90;;;;;;5019777;28;20049;-58
2023/10/16 14:20:53;;;;;;;5.53;1.35;;;13.90;99.90;;;;;;5051085;28;20045;-56
2023/10/16 14:23:32;;;;;;;5.25;1.30;;;13.90;99.90;;;;;;5052475;28;20096;-57
2023/10/16 14:25:58;;;;;;;4.53;1.15;;;13.90;99.90;;;;;;5051965;28;20088;-56
2023/10/16 14:30:58;;;;;;;9.48;1.52;;;13.90;99.90;;;;;;5025376;28;20040;-58
2023/10/16 14:33:28;;;;;;;6.65;1.58;;;13.80;99.90;;;;;;5025654;28;20095;-55
2023/10/16 14:36:00;;;;;;;3.45;1.33;;;13.80;99.90;;;;;;5021773;28;20473;-56
2023/10/16 14:38:28;;;;;;;5.55;1.40;;;13.80;99.90;;;;;;5022530;28;20084;-57
2023/10/16 14:41:06;;;;;;;4.53;1.00;;;13.80;99.90;;;;;;5023007;28;20056;-58
2023/10/16 14:43:34;;;;;;;7.07;1.48;;;13.70;99.90;;;;;;5022126;28;20596;-58
2023/10/16 14:46:03;;;;;;;4.00;1.17;;;13.70;99.90;;;;;;5021973;28;20315;-58
2023/10/16 14:48:29;;;;;;;4.45;1.30;;;13.60;99.90;;;;;;5048209;28;20041;-57
2023/10/16 14:50:55;;;;;;;4.40;1.55;;;13.60;99.90;;;;;;5020364;28;20397;-55
2023/10/16 14:53:24;;;;;;;7.85;3.40;;;13.60;99.90;;;;;;5055901;28;20046;-58
2023/10/16 14:55:50;;;;;;;5.10;2.20;;;13.60;99.90;;;;;;5008454;28;20307;-58
2023/10/16 14:58:18;;;;;;;5.53;1.70;;;13.50;99.90;;;;;;5017612;28;20060;-58
2023/10/16 15:00:48;;;;;;;4.45;1.30;;;13.50;99.90;;;;;;5018308;28;20057;-56
2023/10/16 15:03:14;;;;;;;7.40;1.40;;;13.50;99.90;;;;;;5020083;28;20037;-58
2023/10/16 15:05:45;;;;;;;5.55;1.20;;;13.50;99.90;;;;;;5003034;28;20423;-58
2023/10/16 15:08:12;;;;;;;5.70;1.60;;;13.40;99.90;;;;;;5021423;28;20049;-57
2023/10/16 15:10:42;;;;;;;5.70;1.38;;;13.40;99.90;;;;;;5005438;28;20037;-58
2023/10/16 15:13:14;;;;;;;4.15;1.52;;;13.40;99.90;;;;;;5052430;28;20409;-57
2023/10/16 15:15:45;;;;;;;9.60;1.67;;;13.30;99.90;;;;;;5019035;28;20049;-58
2023/10/16 15:18:12;;;;;;;7.18;1.50;;;13.30;99.90;;;;;;5038573;28;20045;-57
2023/10/16 15:20:39;;;;;;;5.57;1.35;;;13.20;99.90;;;;;;5021798;28;20041;-58
2023/10/16 15:23:06;;;;;;;11.30;2.05;;;13.20;99.90;;;;;;5023845;28;20056;-58
2023/10/16 15:25:32;;;;;;;6.50;1.38;;;13.20;99.90;;;;;;5056587;28;20044;-58